sensor_id;sensor_type;location;lat;lon;timestamp;P1;durP1;ratioP1;P2;durP2;ratioP2
48014;SDS011;33780;51.034;7.120;2023-04-09T00:00:32;25.77;;;12.02;;
48014;SDS011;33780;51.034;7.120;2023-04-09T00:02:57;21.73;;;11.40;;
48014;SDS011;33780;51.034;7.120;2023-04-09T00:05:22;19.50;;;10.07;;
48014;SDS011;33780;51.034;7.120;2023-04-09T00:07:47;20.60;;;9.90;;
48014;SDS011;33780;51.034;7.120;2023-04-09T00:10:13;21.55;;;10.30;;
48014;SDS011;33780;51.034;7.120;2023-04-09T00:12:38;18.48;;;9.80;;
48014;SDS011;33780;51.034;7.120;2023-04-09T00:15:03;19.48;;;10.32;;
48014;SDS011;33780;51.034;7.120;2023-04-09T00:17:29;19.10;;;9.30;;
48014;SDS011;33780;51.034;7.120;2023-04-09T00:19:54;20.30;;;10.00;;
48014;SDS011;33780;51.034;7.120;2023-04-09T00:22:20;19.27;;;9.50;;
48014;SDS011;33780;51.034;7.120;2023-04-09T00:24:45;19.73;;;9.32;;
48014;SDS011;33780;51.034;7.120;2023-04-09T00:27:10;21.13;;;9.80;;
48014;SDS011;33780;51.034;7.120;2023-04-09T00:29:36;21.42;;;10.95;;
48014;SDS011;33780;51.034;7.120;2023-04-09T00:32:01;20.13;;;10.63;;
48014;SDS011;33780;51.034;7.120;2023-04-09T00:34:26;22.42;;;10.90;;
48014;SDS011;33780;51.034;7.120;2023-04-09T00:36:51;20.80;;;10.68;;
48014;SDS011;33780;51.034;7.120;2023-04-09T00:39:17;20.05;;;9.75;;
48014;SDS011;33780;51.034;7.120;2023-04-09T00:41:42;19.17;;;9.25;;
48014;SDS011;33780;51.034;7.120;2023-04-09T00:44:07;18.48;;;9.15;;
48014;SDS011;33780;51.034;7.120;2023-04-09T00:46:32;19.55;;;10.27;;
48014;SDS011;33780;51.034;7.120;2023-04-09T00:48:58;19.92;;;9.57;;
48014;SDS011;33780;51.034;7.120;2023-04-09T00:51:23;23.08;;;11.18;;
48014;SDS011;33780;51.034;7.120;2023-04-09T00:53:49;21.67;;;10.95;;
48014;SDS011;33780;51.034;7.120;2023-04-09T00:56:15;19.92;;;10.55;;
48014;SDS011;33780;51.034;7.120;2023-04-09T00:58:42;20.08;;;10.98;;
48014;SDS011;33780;51.034;7.120;2023-04-09T01:01:07;20.52;;;11.20;;
48014;SDS011;33780;51.034;7.120;2023-04-09T01:03:33;21.52;;;10.65;;
48014;SDS011;33780;51.034;7.120;2023-04-09T01:05:59;21.45;;;10.57;;
48014;SDS011;33780;51.034;7.120;2023-04-09T01:08:37;20.88;;;10.73;;
48014;SDS011;33780;51.034;7.120;2023-04-09T01:11:15;20.15;;;10.57;;
48014;SDS011;33780;51.034;7.120;2023-04-09T01:16:41;23.00;;;11.38;;
48014;SDS011;33780;51.034;7.120;2023-04-09T01:22:27;21.30;;;11.02;;
48014;SDS011;33780;51.034;7.120;2023-04-09T01:25:02;22.35;;;11.32;;
48014;SDS011;33780;51.034;7.120;2023-04-09T01:27:36;20.90;;;11.05;;
48014;SDS011;33780;51.034;7.120;2023-04-09T01:30:10;23.45;;;12.00;;
48014;SDS011;33780;51.034;7.120;2023-04-09T01:32:38;21.42;;;11.30;;
48014;SDS011;33780;51.034;7.120;2023-04-09T01:35:05;21.30;;;10.80;;
48014;SDS011;33780;51.034;7.120;2023-04-09T01:37:32;20.00;;;10.63;;
48014;SDS011;33780;51.034;7.120;2023-04-09T01:39:59;20.23;;;11.23;;
48014;SDS011;33780;51.034;7.120;2023-04-09T01:42:25;20.00;;;10.40;;
48014;SDS011;33780;51.034;7.120;2023-04-09T01:44:52;24.95;;;11.02;;
48014;SDS011;33780;51.034;7.120;2023-04-09T01:47:17;24.13;;;11.30;;
48014;SDS011;33780;51.034;7.120;2023-04-09T01:49:43;24.20;;;11.07;;
48014;SDS011;33780;51.034;7.120;2023-04-09T01:52:09;19.15;;;10.55;;
48014;SDS011;33780;51.034;7.120;2023-04-09T01:54:36;24.33;;;10.98;;
48014;SDS011;33780;51.034;7.120;2023-04-09T01:57:01;18.90;;;10.07;;
48014;SDS011;33780;51.034;7.120;2023-04-09T01:59:26;20.85;;;10.70;;
48014;SDS011;33780;51.034;7.120;2023-04-09T02:02:02;21.17;;;10.27;;
48014;SDS011;33780;51.034;7.120;2023-04-09T02:04:33;20.77;;;10.32;;
48014;SDS011;33780;51.034;7.120;2023-04-09T02:07:09;22.08;;;10.88;;
48014;SDS011;33780;51.034;7.120;2023-04-09T02:09:42;18.10;;;9.73;;
48014;SDS011;33780;51.034;7.120;2023-04-09T02:12:11;21.75;;;11.07;;
48014;SDS011;33780;51.034;7.120;2023-04-09T02:14:38;21.02;;;10.23;;
48014;SDS011;33780;51.034;7.120;2023-04-09T02:17:05;19.35;;;10.85;;
48014;SDS011;33780;51.034;7.120;2023-04-09T02:19:37;23.63;;;10.40;;
48014;SDS011;33780;51.034;7.120;2023-04-09T02:22:03;18.83;;;9.52;;
48014;SDS011;33780;51.034;7.120;2023-04-09T02:24:29;22.08;;;11.05;;
48014;SDS011;33780;51.034;7.120;2023-04-09T02:26:54;19.17;;;9.57;;
48014;SDS011;33780;51.034;7.120;2023-04-09T02:29:19;22.50;;;10.52;;
48014;SDS011;33780;51.034;7.120;2023-04-09T02:31:45;22.05;;;10.63;;
48014;SDS011;33780;51.034;7.120;2023-04-09T02:34:10;16.38;;;8.75;;
48014;SDS011;33780;51.034;7.120;2023-04-09T02:36:35;19.67;;;9.73;;
48014;SDS011;33780;51.034;7.120;2023-04-09T02:39:00;19.90;;;9.98;;
48014;SDS011;33780;51.034;7.120;2023-04-09T02:41:26;18.33;;;9.98;;
48014;SDS011;33780;51.034;7.120;2023-04-09T02:43:51;18.33;;;9.50;;
48014;SDS011;33780;51.034;7.120;2023-04-09T02:46:16;21.05;;;10.30;;
48014;SDS011;33780;51.034;7.120;2023-04-09T02:48:41;20.60;;;9.75;;
48014;SDS011;33780;51.034;7.120;2023-04-09T02:51:06;19.50;;;9.85;;
48014;SDS011;33780;51.034;7.120;2023-04-09T02:53:32;18.40;;;9.32;;
48014;SDS011;33780;51.034;7.120;2023-04-09T02:55:57;21.30;;;10.50;;
48014;SDS011;33780;51.034;7.120;2023-04-09T02:58:22;20.02;;;9.52;;
48014;SDS011;33780;51.034;7.120;2023-04-09T03:00:47;20.52;;;10.00;;
48014;SDS011;33780;51.034;7.120;2023-04-09T03:03:13;23.55;;;10.07;;
48014;SDS011;33780;51.034;7.120;2023-04-09T03:05:38;22.05;;;10.48;;
48014;SDS011;33780;51.034;7.120;2023-04-09T03:08:03;20.27;;;9.00;;
48014;SDS011;33780;51.034;7.120;2023-04-09T03:10:29;18.65;;;9.43;;
48014;SDS011;33780;51.034;7.120;2023-04-09T03:12:54;16.52;;;8.75;;
48014;SDS011;33780;51.034;7.120;2023-04-09T03:15:19;18.05;;;9.32;;
48014;SDS011;33780;51.034;7.120;2023-04-09T03:17:45;15.93;;;8.90;;
48014;SDS011;33780;51.034;7.120;2023-04-09T03:20:10;21.50;;;10.05;;
48014;SDS011;33780;51.034;7.120;2023-04-09T03:22:36;18.63;;;9.10;;
48014;SDS011;33780;51.034;7.120;2023-04-09T03:25:01;19.25;;;9.10;;
48014;SDS011;33780;51.034;7.120;2023-04-09T03:27:27;21.05;;;9.90;;
48014;SDS011;33780;51.034;7.120;2023-04-09T03:29:55;22.23;;;9.65;;
48014;SDS011;33780;51.034;7.120;2023-04-09T03:32:21;19.80;;;9.68;;
48014;SDS011;33780;51.034;7.120;2023-04-09T03:34:46;16.75;;;8.85;;
48014;SDS011;33780;51.034;7.120;2023-04-09T03:37:11;18.83;;;9.48;;
48014;SDS011;33780;51.034;7.120;2023-04-09T03:39:37;18.90;;;9.48;;
48014;SDS011;33780;51.034;7.120;2023-04-09T03:42:02;19.83;;;9.55;;
48014;SDS011;33780;51.034;7.120;2023-04-09T03:44:27;19.38;;;9.50;;
48014;SDS011;33780;51.034;7.120;2023-04-09T03:46:52;20.25;;;9.40;;
48014;SDS011;33780;51.034;7.120;2023-04-09T03:49:18;20.75;;;9.15;;
48014;SDS011;33780;51.034;7.120;2023-04-09T03:51:43;17.92;;;9.10;;
48014;SDS011;33780;51.034;7.120;2023-04-09T03:54:08;18.10;;;8.60;;
48014;SDS011;33780;51.034;7.120;2023-04-09T03:56:34;18.88;;;9.18;;
48014;SDS011;33780;51.034;7.120;2023-04-09T03:58:59;15.95;;;9.00;;
48014;SDS011;33780;51.034;7.120;2023-04-09T04:01:24;17.67;;;8.85;;
48014;SDS011;33780;51.034;7.120;2023-04-09T04:03:50;17.75;;;9.05;;
48014;SDS011;33780;51.034;7.120;2023-04-09T04:06:15;19.05;;;9.23;;
48014;SDS011;33780;51.034;7.120;2023-04-09T04:08:40;17.48;;;8.70;;
48014;SDS011;33780;51.034;7.120;2023-04-09T04:11:05;20.17;;;9.15;;
48014;SDS011;33780;51.034;7.120;2023-04-09T04:13:31;17.17;;;8.70;;
48014;SDS011;33780;51.034;7.120;2023-04-09T04:15:56;17.63;;;8.40;;
48014;SDS011;33780;51.034;7.120;2023-04-09T04:18:21;17.38;;;8.32;;
48014;SDS011;33780;51.034;7.120;2023-04-09T04:20:46;16.73;;;9.00;;
48014;SDS011;33780;51.034;7.120;2023-04-09T04:23:12;18.05;;;9.65;;
48014;SDS011;33780;51.034;7.120;2023-04-09T04:25:40;17.92;;;9.40;;
48014;SDS011;33780;51.034;7.120;2023-04-09T04:28:06;18.52;;;9.25;;
48014;SDS011;33780;51.034;7.120;2023-04-09T04:30:31;17.38;;;8.50;;
48014;SDS011;33780;51.034;7.120;2023-04-09T04:32:57;17.85;;;8.60;;
48014;SDS011;33780;51.034;7.120;2023-04-09T04:35:22;15.38;;;8.02;;
48014;SDS011;33780;51.034;7.120;2023-04-09T04:37:50;18.10;;;8.80;;
48014;SDS011;33780;51.034;7.120;2023-04-09T04:40:16;20.95;;;9.60;;
48014;SDS011;33780;51.034;7.120;2023-04-09T04:42:41;19.83;;;9.35;;
48014;SDS011;33780;51.034;7.120;2023-04-09T04:45:07;15.50;;;7.60;;
48014;SDS011;33780;51.034;7.120;2023-04-09T04:47:33;19.25;;;8.20;;
48014;SDS011;33780;51.034;7.120;2023-04-09T04:49:58;16.92;;;8.30;;
48014;SDS011;33780;51.034;7.120;2023-04-09T04:52:23;13.65;;;7.95;;
48014;SDS011;33780;51.034;7.120;2023-04-09T04:54:49;17.15;;;8.40;;
48014;SDS011;33780;51.034;7.120;2023-04-09T04:57:14;18.17;;;8.80;;
48014;SDS011;33780;51.034;7.120;2023-04-09T04:59:39;17.20;;;8.00;;
48014;SDS011;33780;51.034;7.120;2023-04-09T05:02:05;19.63;;;8.30;;
48014;SDS011;33780;51.034;7.120;2023-04-09T05:04:31;13.88;;;7.47;;
48014;SDS011;33780;51.034;7.120;2023-04-09T05:06:56;15.43;;;7.22;;
48014;SDS011;33780;51.034;7.120;2023-04-09T05:09:22;16.20;;;8.40;;
48014;SDS011;33780;51.034;7.120;2023-04-09T05:11:47;14.95;;;7.85;;
48014;SDS011;33780;51.034;7.120;2023-04-09T05:14:12;15.57;;;7.60;;
48014;SDS011;33780;51.034;7.120;2023-04-09T05:16:38;16.77;;;8.48;;
48014;SDS011;33780;51.034;7.120;2023-04-09T05:19:03;16.45;;;7.97;;
48014;SDS011;33780;51.034;7.120;2023-04-09T05:21:28;15.23;;;7.07;;
48014;SDS011;33780;51.034;7.120;2023-04-09T05:23:53;16.65;;;7.75;;
48014;SDS011;33780;51.034;7.120;2023-04-09T05:26:19;15.02;;;7.60;;
48014;SDS011;33780;51.034;7.120;2023-04-09T05:28:45;18.25;;;7.53;;
48014;SDS011;33780;51.034;7.120;2023-04-09T05:31:11;14.82;;;7.28;;
48014;SDS011;33780;51.034;7.120;2023-04-09T05:33:37;14.30;;;7.32;;
48014;SDS011;33780;51.034;7.120;2023-04-09T05:36:03;15.82;;;7.25;;
48014;SDS011;33780;51.034;7.120;2023-04-09T05:38:28;15.10;;;7.43;;
48014;SDS011;33780;51.034;7.120;2023-04-09T05:40:54;19.92;;;7.38;;
48014;SDS011;33780;51.034;7.120;2023-04-09T05:43:19;17.27;;;7.45;;
48014;SDS011;33780;51.034;7.120;2023-04-09T05:45:45;18.08;;;8.00;;
48014;SDS011;33780;51.034;7.120;2023-04-09T05:48:10;13.65;;;7.25;;
48014;SDS011;33780;51.034;7.120;2023-04-09T05:50:35;17.80;;;7.65;;
48014;SDS011;33780;51.034;7.120;2023-04-09T05:53:00;13.55;;;7.30;;
48014;SDS011;33780;51.034;7.120;2023-04-09T05:55:26;15.85;;;7.32;;
48014;SDS011;33780;51.034;7.120;2023-04-09T05:57:51;15.20;;;7.13;;
48014;SDS011;33780;51.034;7.120;2023-04-09T06:00:17;12.70;;;7.07;;
48014;SDS011;33780;51.034;7.120;2023-04-09T06:02:43;14.88;;;6.85;;
48014;SDS011;33780;51.034;7.120;2023-04-09T06:05:08;15.43;;;7.25;;
48014;SDS011;33780;51.034;7.120;2023-04-09T06:07:34;15.05;;;7.00;;
48014;SDS011;33780;51.034;7.120;2023-04-09T06:09:59;14.75;;;7.25;;
48014;SDS011;33780;51.034;7.120;2023-04-09T06:12:25;13.05;;;7.15;;
48014;SDS011;33780;51.034;7.120;2023-04-09T06:14:50;15.27;;;7.13;;
48014;SDS011;33780;51.034;7.120;2023-04-09T06:17:15;13.43;;;6.85;;
48014;SDS011;33780;51.034;7.120;2023-04-09T06:19:40;13.88;;;6.88;;
48014;SDS011;33780;51.034;7.120;2023-04-09T06:22:08;13.20;;;6.95;;
48014;SDS011;33780;51.034;7.120;2023-04-09T06:24:34;13.27;;;7.07;;
48014;SDS011;33780;51.034;7.120;2023-04-09T06:27:00;14.68;;;6.90;;
48014;SDS011;33780;51.034;7.120;2023-04-09T06:29:25;13.77;;;6.63;;
48014;SDS011;33780;51.034;7.120;2023-04-09T06:31:51;13.30;;;6.72;;
48014;SDS011;33780;51.034;7.120;2023-04-09T06:34:16;12.90;;;6.32;;
48014;SDS011;33780;51.034;7.120;2023-04-09T06:36:42;14.43;;;7.00;;
48014;SDS011;33780;51.034;7.120;2023-04-09T06:39:08;13.93;;;6.65;;
48014;SDS011;33780;51.034;7.120;2023-04-09T06:41:33;15.35;;;6.93;;
48014;SDS011;33780;51.034;7.120;2023-04-09T06:43:59;14.88;;;6.72;;
48014;SDS011;33780;51.034;7.120;2023-04-09T06:46:24;11.55;;;5.53;;
48014;SDS011;33780;51.034;7.120;2023-04-09T06:48:50;12.15;;;6.30;;
48014;SDS011;33780;51.034;7.120;2023-04-09T06:51:15;10.93;;;6.03;;
48014;SDS011;33780;51.034;7.120;2023-04-09T06:53:41;13.02;;;6.63;;
48014;SDS011;33780;51.034;7.120;2023-04-09T06:56:06;13.57;;;6.10;;
48014;SDS011;33780;51.034;7.120;2023-04-09T06:58:32;13.80;;;7.15;;
48014;SDS011;33780;51.034;7.120;2023-04-09T07:00:57;14.02;;;5.85;;
48014;SDS011;33780;51.034;7.120;2023-04-09T07:03:23;13.32;;;6.25;;
48014;SDS011;33780;51.034;7.120;2023-04-09T07:05:49;11.38;;;5.82;;
48014;SDS011;33780;51.034;7.120;2023-04-09T07:08:15;13.23;;;5.85;;
48014;SDS011;33780;51.034;7.120;2023-04-09T07:10:41;11.48;;;6.10;;
48014;SDS011;33780;51.034;7.120;2023-04-09T07:13:06;11.68;;;6.00;;
48014;SDS011;33780;51.034;7.120;2023-04-09T07:15:31;13.77;;;6.00;;
48014;SDS011;33780;51.034;7.120;2023-04-09T07:17:57;10.70;;;5.90;;
48014;SDS011;33780;51.034;7.120;2023-04-09T07:20:22;14.45;;;6.03;;
48014;SDS011;33780;51.034;7.120;2023-04-09T07:22:47;11.40;;;5.25;;
48014;SDS011;33780;51.034;7.120;2023-04-09T07:25:13;13.18;;;5.80;;
48014;SDS011;33780;51.034;7.120;2023-04-09T07:27:39;13.68;;;5.55;;
48014;SDS011;33780;51.034;7.120;2023-04-09T07:30:05;11.40;;;5.35;;
48014;SDS011;33780;51.034;7.120;2023-04-09T07:32:30;11.68;;;4.88;;
48014;SDS011;33780;51.034;7.120;2023-04-09T07:34:56;13.02;;;5.57;;
48014;SDS011;33780;51.034;7.120;2023-04-09T07:37:23;10.55;;;5.05;;
48014;SDS011;33780;51.034;7.120;2023-04-09T07:39:48;11.95;;;5.50;;
48014;SDS011;33780;51.034;7.120;2023-04-09T07:42:15;11.30;;;5.15;;
48014;SDS011;33780;51.034;7.120;2023-04-09T07:44:40;12.32;;;5.00;;
48014;SDS011;33780;51.034;7.120;2023-04-09T07:47:06;11.23;;;4.60;;
48014;SDS011;33780;51.034;7.120;2023-04-09T07:49:32;8.93;;;4.97;;
48014;SDS011;33780;51.034;7.120;2023-04-09T07:51:59;14.30;;;5.60;;
48014;SDS011;33780;51.034;7.120;2023-04-09T07:54:25;12.52;;;4.90;;
48014;SDS011;33780;51.034;7.120;2023-04-09T07:56:50;11.27;;;4.57;;
48014;SDS011;33780;51.034;7.120;2023-04-09T07:59:16;12.18;;;5.28;;
48014;SDS011;33780;51.034;7.120;2023-04-09T08:01:41;10.48;;;4.68;;
48014;SDS011;33780;51.034;7.120;2023-04-09T08:04:07;11.15;;;5.05;;
48014;SDS011;33780;51.034;7.120;2023-04-09T08:06:33;11.55;;;5.25;;
48014;SDS011;33780;51.034;7.120;2023-04-09T08:08:58;9.43;;;4.22;;
48014;SDS011;33780;51.034;7.120;2023-04-09T08:11:23;10.18;;;4.03;;
48014;SDS011;33780;51.034;7.120;2023-04-09T08:13:53;10.95;;;4.68;;
48014;SDS011;33780;51.034;7.120;2023-04-09T08:16:19;9.38;;;4.07;;
48014;SDS011;33780;51.034;7.120;2023-04-09T08:18:45;10.93;;;4.55;;
48014;SDS011;33780;51.034;7.120;2023-04-09T08:21:11;10.13;;;4.70;;
48014;SDS011;33780;51.034;7.120;2023-04-09T08:23:36;10.27;;;4.75;;
48014;SDS011;33780;51.034;7.120;2023-04-09T08:26:02;9.35;;;4.10;;
48014;SDS011;33780;51.034;7.120;2023-04-09T08:28:27;10.02;;;4.47;;
48014;SDS011;33780;51.034;7.120;2023-04-09T08:30:53;11.30;;;4.90;;
48014;SDS011;33780;51.034;7.120;2023-04-09T08:33:18;9.73;;;4.50;;
48014;SDS011;33780;51.034;7.120;2023-04-09T08:35:43;9.77;;;4.40;;
48014;SDS011;33780;51.034;7.120;2023-04-09T08:38:09;10.10;;;4.13;;
48014;SDS011;33780;51.034;7.120;2023-04-09T08:40:35;6.88;;;3.10;;
48014;SDS011;33780;51.034;7.120;2023-04-09T08:43:00;8.63;;;3.30;;
48014;SDS011;33780;51.034;7.120;2023-04-09T08:45:29;7.95;;;3.50;;
48014;SDS011;33780;51.034;7.120;2023-04-09T08:47:55;8.25;;;3.60;;
48014;SDS011;33780;51.034;7.120;2023-04-09T08:50:23;8.88;;;3.58;;
48014;SDS011;33780;51.034;7.120;2023-04-09T08:52:49;9.57;;;3.90;;
48014;SDS011;33780;51.034;7.120;2023-04-09T08:55:15;10.38;;;4.15;;
48014;SDS011;33780;51.034;7.120;2023-04-09T08:57:40;9.10;;;3.42;;
48014;SDS011;33780;51.034;7.120;2023-04-09T09:00:06;8.63;;;3.83;;
48014;SDS011;33780;51.034;7.120;2023-04-09T09:02:32;10.18;;;3.80;;
48014;SDS011;33780;51.034;7.120;2023-04-09T09:04:58;7.72;;;3.70;;
48014;SDS011;33780;51.034;7.120;2023-04-09T09:07:24;6.28;;;3.10;;
48014;SDS011;33780;51.034;7.120;2023-04-09T09:09:53;7.47;;;3.25;;
48014;SDS011;33780;51.034;7.120;2023-04-09T09:12:29;5.75;;;2.97;;
48014;SDS011;33780;51.034;7.120;2023-04-09T09:15:01;8.35;;;3.45;;
48014;SDS011;33780;51.034;7.120;2023-04-09T09:17:26;6.82;;;3.20;;
48014;SDS011;33780;51.034;7.120;2023-04-09T09:19:52;9.30;;;3.50;;
48014;SDS011;33780;51.034;7.120;2023-04-09T09:22:17;8.50;;;3.50;;
48014;SDS011;33780;51.034;7.120;2023-04-09T09:24:46;7.05;;;3.17;;
48014;SDS011;33780;51.034;7.120;2023-04-09T09:27:31;5.70;;;2.72;;
48014;SDS011;33780;51.034;7.120;2023-04-09T09:30:04;7.80;;;2.63;;
48014;SDS011;33780;51.034;7.120;2023-04-09T09:32:31;6.95;;;3.17;;
48014;SDS011;33780;51.034;7.120;2023-04-09T09:34:59;5.55;;;2.72;;
48014;SDS011;33780;51.034;7.120;2023-04-09T09:37:31;6.50;;;2.83;;
48014;SDS011;33780;51.034;7.120;2023-04-09T09:39:57;6.40;;;2.88;;
48014;SDS011;33780;51.034;7.120;2023-04-09T09:42:23;5.80;;;2.40;;
48014;SDS011;33780;51.034;7.120;2023-04-09T09:44:50;7.35;;;3.00;;
48014;SDS011;33780;51.034;7.120;2023-04-09T09:47:17;6.22;;;2.95;;
48014;SDS011;33780;51.034;7.120;2023-04-09T09:49:43;6.05;;;2.50;;
48014;SDS011;33780;51.034;7.120;2023-04-09T09:52:10;6.00;;;2.65;;
48014;SDS011;33780;51.034;7.120;2023-04-09T09:54:41;4.05;;;2.10;;
48014;SDS011;33780;51.034;7.120;2023-04-09T09:57:10;5.57;;;2.22;;
48014;SDS011;33780;51.034;7.120;2023-04-09T09:59:50;5.57;;;2.67;;
48014;SDS011;33780;51.034;7.120;2023-04-09T10:02:22;5.90;;;2.53;;
48014;SDS011;33780;51.034;7.120;2023-04-09T10:04:48;5.80;;;2.80;;
48014;SDS011;33780;51.034;7.120;2023-04-09T10:07:16;4.60;;;2.40;;
48014;SDS011;33780;51.034;7.120;2023-04-09T10:09:44;6.40;;;2.60;;
48014;SDS011;33780;51.034;7.120;2023-04-09T10:12:13;5.53;;;2.67;;
48014;SDS011;33780;51.034;7.120;2023-04-09T10:14:38;6.32;;;2.50;;
48014;SDS011;33780;51.034;7.120;2023-04-09T10:17:04;7.38;;;3.03;;
48014;SDS011;33780;51.034;7.120;2023-04-09T10:19:30;6.50;;;2.92;;
48014;SDS011;33780;51.034;7.120;2023-04-09T10:22:03;5.30;;;2.67;;
48014;SDS011;33780;51.034;7.120;2023-04-09T10:24:33;6.23;;;2.93;;
48014;SDS011;33780;51.034;7.120;2023-04-09T10:27:12;5.80;;;2.75;;
48014;SDS011;33780;51.034;7.120;2023-04-09T10:29:46;6.22;;;3.00;;
48014;SDS011;33780;51.034;7.120;2023-04-09T10:32:16;5.78;;;2.53;;
48014;SDS011;33780;51.034;7.120;2023-04-09T10:34:50;8.23;;;3.03;;
48014;SDS011;33780;51.034;7.120;2023-04-09T10:37:20;5.15;;;2.35;;
48014;SDS011;33780;51.034;7.120;2023-04-09T10:39:47;5.03;;;2.47;;
48014;SDS011;33780;51.034;7.120;2023-04-09T10:42:14;4.95;;;2.47;;
48014;SDS011;33780;51.034;7.120;2023-04-09T10:44:44;4.63;;;2.10;;
48014;SDS011;33780;51.034;7.120;2023-04-09T10:47:10;4.90;;;2.60;;
48014;SDS011;33780;51.034;7.120;2023-04-09T10:49:37;4.55;;;2.30;;
48014;SDS011;33780;51.034;7.120;2023-04-09T10:52:07;5.38;;;2.30;;
48014;SDS011;33780;51.034;7.120;2023-04-09T10:59:38;5.68;;;3.08;;
48014;SDS011;33780;51.034;7.120;2023-04-09T11:02:09;6.10;;;2.97;;
48014;SDS011;33780;51.034;7.120;2023-04-09T11:04:45;6.35;;;2.83;;
48014;SDS011;33780;51.034;7.120;2023-04-09T11:07:31;5.05;;;2.95;;
48014;SDS011;33780;51.034;7.120;2023-04-09T11:09:59;5.03;;;2.67;;
48014;SDS011;33780;51.034;7.120;2023-04-09T11:12:24;6.50;;;3.08;;
48014;SDS011;33780;51.034;7.120;2023-04-09T11:14:49;7.55;;;2.95;;
48014;SDS011;33780;51.034;7.120;2023-04-09T11:17:15;6.78;;;2.97;;
48014;SDS011;33780;51.034;7.120;2023-04-09T11:19:42;5.85;;;2.88;;
48014;SDS011;33780;51.034;7.120;2023-04-09T11:22:08;5.88;;;2.70;;
48014;SDS011;33780;51.034;7.120;2023-04-09T11:24:40;5.50;;;2.60;;
48014;SDS011;33780;51.034;7.120;2023-04-09T11:27:10;5.97;;;2.80;;
48014;SDS011;33780;51.034;7.120;2023-04-09T11:29:36;5.30;;;2.40;;
48014;SDS011;33780;51.034;7.120;2023-04-09T11:32:02;6.22;;;2.63;;
48014;SDS011;33780;51.034;7.120;2023-04-09T11:34:29;5.63;;;2.70;;
48014;SDS011;33780;51.034;7.120;2023-04-09T11:36:55;7.18;;;2.65;;
48014;SDS011;33780;51.034;7.120;2023-04-09T11:39:20;5.40;;;2.40;;
48014;SDS011;33780;51.034;7.120;2023-04-09T11:41:46;5.20;;;2.53;;
48014;SDS011;33780;51.034;7.120;2023-04-09T11:44:11;4.47;;;2.38;;
48014;SDS011;33780;51.034;7.120;2023-04-09T11:46:37;5.50;;;2.70;;
48014;SDS011;33780;51.034;7.120;2023-04-09T11:49:04;4.78;;;2.65;;
48014;SDS011;33780;51.034;7.120;2023-04-09T11:51:29;5.15;;;2.55;;
48014;SDS011;33780;51.034;7.120;2023-04-09T11:54:05;5.95;;;2.28;;
48014;SDS011;33780;51.034;7.120;2023-04-09T11:56:31;5.40;;;2.40;;
48014;SDS011;33780;51.034;7.120;2023-04-09T11:58:59;4.53;;;2.13;;
48014;SDS011;33780;51.034;7.120;2023-04-09T12:01:29;4.00;;;2.13;;
48014;SDS011;33780;51.034;7.120;2023-04-09T12:03:56;4.68;;;2.33;;
48014;SDS011;33780;51.034;7.120;2023-04-09T12:06:21;4.03;;;1.90;;
48014;SDS011;33780;51.034;7.120;2023-04-09T12:08:55;4.15;;;1.92;;
48014;SDS011;33780;51.034;7.120;2023-04-09T12:11:26;4.28;;;2.15;;
48014;SDS011;33780;51.034;7.120;2023-04-09T12:13:59;4.13;;;2.10;;
48014;SDS011;33780;51.034;7.120;2023-04-09T12:16:29;3.55;;;1.65;;
48014;SDS011;33780;51.034;7.120;2023-04-09T12:18:59;4.18;;;2.28;;
48014;SDS011;33780;51.034;7.120;2023-04-09T12:21:53;5.05;;;2.28;;
48014;SDS011;33780;51.034;7.120;2023-04-09T12:24:22;4.28;;;1.88;;
48014;SDS011;33780;51.034;7.120;2023-04-09T12:26:49;4.13;;;2.00;;
48014;SDS011;33780;51.034;7.120;2023-04-09T12:29:15;5.05;;;2.33;;
48014;SDS011;33780;51.034;7.120;2023-04-09T12:31:43;4.75;;;1.90;;
48014;SDS011;33780;51.034;7.120;2023-04-09T12:34:08;4.50;;;1.90;;
48014;SDS011;33780;51.034;7.120;2023-04-09T12:36:34;3.95;;;1.83;;
48014;SDS011;33780;51.034;7.120;2023-04-09T12:38:59;4.20;;;1.77;;
48014;SDS011;33780;51.034;7.120;2023-04-09T12:41:25;4.03;;;1.73;;
48014;SDS011;33780;51.034;7.120;2023-04-09T12:43:51;3.65;;;1.83;;
48014;SDS011;33780;51.034;7.120;2023-04-09T12:46:19;4.43;;;1.92;;
48014;SDS011;33780;51.034;7.120;2023-04-09T12:48:47;3.10;;;1.63;;
48014;SDS011;33780;51.034;7.120;2023-04-09T12:51:12;4.70;;;2.00;;
48014;SDS011;33780;51.034;7.120;2023-04-09T12:53:38;3.58;;;2.08;;
48014;SDS011;33780;51.034;7.120;2023-04-09T12:56:04;3.67;;;1.60;;
48014;SDS011;33780;51.034;7.120;2023-04-09T12:58:30;4.45;;;1.92;;
48014;SDS011;33780;51.034;7.120;2023-04-09T13:00:56;4.00;;;1.88;;
48014;SDS011;33780;51.034;7.120;2023-04-09T13:03:24;5.00;;;2.10;;
48014;SDS011;33780;51.034;7.120;2023-04-09T13:05:51;4.40;;;2.10;;
48014;SDS011;33780;51.034;7.120;2023-04-09T13:08:17;3.75;;;1.95;;
48014;SDS011;33780;51.034;7.120;2023-04-09T13:10:42;4.60;;;1.95;;
48014;SDS011;33780;51.034;7.120;2023-04-09T13:13:08;3.83;;;1.88;;
48014;SDS011;33780;51.034;7.120;2023-04-09T13:15:37;4.65;;;2.03;;
48014;SDS011;33780;51.034;7.120;2023-04-09T13:18:03;3.35;;;1.92;;
48014;SDS011;33780;51.034;7.120;2023-04-09T13:20:28;3.72;;;1.67;;
48014;SDS011;33780;51.034;7.120;2023-04-09T13:22:54;3.33;;;1.80;;
48014;SDS011;33780;51.034;7.120;2023-04-09T13:25:20;4.85;;;2.30;;
48014;SDS011;33780;51.034;7.120;2023-04-09T13:27:45;4.68;;;2.33;;
48014;SDS011;33780;51.034;7.120;2023-04-09T13:30:11;4.22;;;1.80;;
48014;SDS011;33780;51.034;7.120;2023-04-09T13:32:36;4.40;;;2.05;;
48014;SDS011;33780;51.034;7.120;2023-04-09T13:35:02;4.03;;;2.08;;
48014;SDS011;33780;51.034;7.120;2023-04-09T13:37:27;4.75;;;2.22;;
48014;SDS011;33780;51.034;7.120;2023-04-09T13:39:53;4.93;;;1.85;;
48014;SDS011;33780;51.034;7.120;2023-04-09T13:42:19;4.18;;;2.10;;
48014;SDS011;33780;51.034;7.120;2023-04-09T13:44:45;4.25;;;1.92;;
48014;SDS011;33780;51.034;7.120;2023-04-09T13:47:10;4.13;;;2.17;;
48014;SDS011;33780;51.034;7.120;2023-04-09T13:49:40;4.22;;;1.88;;
48014;SDS011;33780;51.034;7.120;2023-04-09T13:52:06;3.67;;;2.05;;
48014;SDS011;33780;51.034;7.120;2023-04-09T13:54:32;3.47;;;1.90;;
48014;SDS011;33780;51.034;7.120;2023-04-09T13:56:58;3.72;;;1.98;;
48014;SDS011;33780;51.034;7.120;2023-04-09T13:59:23;3.55;;;1.75;;
48014;SDS011;33780;51.034;7.120;2023-04-09T14:01:49;4.60;;;2.25;;
48014;SDS011;33780;51.034;7.120;2023-04-09T14:04:14;3.75;;;1.70;;
48014;SDS011;33780;51.034;7.120;2023-04-09T14:06:40;4.18;;;2.17;;
48014;SDS011;33780;51.034;7.120;2023-04-09T14:09:06;4.35;;;2.33;;
48014;SDS011;33780;51.034;7.120;2023-04-09T14:11:32;3.92;;;2.00;;
48014;SDS011;33780;51.034;7.120;2023-04-09T14:13:57;4.38;;;1.90;;
48014;SDS011;33780;51.034;7.120;2023-04-09T14:16:23;3.47;;;1.70;;
48014;SDS011;33780;51.034;7.120;2023-04-09T14:18:48;3.10;;;1.70;;
48014;SDS011;33780;51.034;7.120;2023-04-09T14:21:13;4.65;;;1.92;;
48014;SDS011;33780;51.034;7.120;2023-04-09T14:23:39;4.40;;;2.38;;
48014;SDS011;33780;51.034;7.120;2023-04-09T14:26:05;4.50;;;2.40;;
48014;SDS011;33780;51.034;7.120;2023-04-09T14:28:30;3.53;;;1.95;;
48014;SDS011;33780;51.034;7.120;2023-04-09T14:30:56;5.05;;;2.30;;
48014;SDS011;33780;51.034;7.120;2023-04-09T14:33:22;4.72;;;2.08;;
48014;SDS011;33780;51.034;7.120;2023-04-09T14:35:47;4.95;;;2.22;;
48014;SDS011;33780;51.034;7.120;2023-04-09T14:38:13;4.82;;;2.53;;
48014;SDS011;33780;51.034;7.120;2023-04-09T14:40:38;4.55;;;2.03;;
48014;SDS011;33780;51.034;7.120;2023-04-09T14:43:03;5.25;;;2.22;;
48014;SDS011;33780;51.034;7.120;2023-04-09T14:45:29;4.82;;;2.20;;